Time;durP1;ratioP1;P1;durP2;ratioP2;P2;SDS_P1;SDS_P2;PMS_P1;PMS_P2;Temp;Humidity;BMP_temperature;BMP_pressure;BME280_temperature;BME280_humidity;BME280_pressure;Samples;Min_cycle;Max_cycle;Signal;HPM_P1;HPM_P2
2022/03/03 00:00:41;;;;;;;;;;;2.70;75.40;;;;;;5058561;28;20019;-70
2022/03/03 00:03:07;;;;;;;;;;;2.70;75.30;;;;;;5063181;28;19944;-70
2022/03/03 00:05:35;;;;;;;;;;;2.60;75.30;;;;;;5055392;28;19932;-70
2022/03/03 00:08:02;;;;;;;;;;;2.60;75.30;;;;;;5053701;28;19940;-71
2022/03/03 00:10:29;;;;;;;;;;;2.60;75.40;;;;;;5056660;28;19939;-70
2022/03/03 00:12:55;;;;;;;;;;;2.60;75.50;;;;;;5059518;28;20015;-69
2022/03/03 00:15:22;;;;;;;;;;;2.50;75.50;;;;;;5060341;28;19932;-70
2022/03/03 00:17:48;;;;;;;;;;;2.50;75.50;;;;;;5062337;28;19928;-69
2022/03/03 00:20:15;;;;;;;;;;;2.50;75.40;;;;;;5062741;28;19933;-70
2022/03/03 00:22:43;;;;;;;;;;;2.50;75.50;;;;;;5056042;28;19940;-70
2022/03/03 00:25:10;;;;;;;;;;;2.50;75.50;;;;;;5062613;28;19933;-69
2022/03/03 00:27:36;;;;;;;;;;;2.50;75.60;;;;;;5058957;28;20675;-69
2022/03/03 00:30:03;;;;;;;;;;;2.40;75.60;;;;;;5057341;28;20414;-69
2022/03/03 00:32:30;;;;;;;;;;;2.40;75.50;;;;;;5057345;28;19928;-70
2022/03/03 00:34:56;;;;;;;;;;;2.40;75.40;;;;;;5058047;28;19932;-70
2022/03/03 00:37:23;;;;;;;;;;;2.40;75.60;;;;;;5057913;28;19929;-70
2022/03/03 00:39:51;;;;;;;;;;;2.40;75.70;;;;;;5054334;28;19935;-69
2022/03/03 00:42:17;;;;;;;;;;;2.30;75.70;;;;;;5059304;28;19928;-70
2022/03/03 00:44:44;;;;;;;;;;;2.30;75.80;;;;;;5063374;28;20039;-70
2022/03/03 00:47:10;;;;;;;;;;;2.30;75.80;;;;;;5056692;28;19936;-70
2022/03/03 00:49:37;;;;;;;;;;;2.30;75.90;;;;;;5056195;28;19939;-70
2022/03/03 00:52:04;;;;;;;;;;;2.30;76.00;;;;;;5056220;28;19933;-69
2022/03/03 00:54:30;;;;;;;;;;;2.20;75.90;;;;;;5059401;28;20479;-69
2022/03/03 00:56:58;;;;;;;;;;;2.20;75.80;;;;;;5055051;28;19932;-69
2022/03/03 00:59:25;;;;;;;;;;;2.20;75.90;;;;;;5057039;28;19933;-70
2022/03/03 01:01:51;;;;;;;;;;;2.20;76.00;;;;;;5050900;28;19941;-69
2022/03/03 01:04:19;;;;;;;;;;;2.20;76.10;;;;;;5062883;28;19986;-69
2022/03/03 01:06:46;;;;;;;;;;;2.20;76.10;;;;;;5057773;28;20035;-69
2022/03/03 01:09:12;;;;;;;;;;;2.10;76.10;;;;;;5056490;28;19939;-70
2022/03/03 01:11:39;;;;;;;;;;;2.10;76.90;;;;;;5063121;28;19929;-69
2022/03/03 01:14:07;;;;;;;;;;;2.10;76.20;;;;;;5050735;28;19929;-69
2022/03/03 01:16:33;;;;;;;;;;;2.10;76.30;;;;;;5052811;28;19928;-69
2022/03/03 01:19:00;;;;;;;;;;;2.10;76.30;;;;;;5060025;28;20467;-69
2022/03/03 01:21:27;;;;;;;;;;;2.00;76.30;;;;;;5059671;28;19944;-70
2022/03/03 01:23:53;;;;;;;;;;;2.00;76.40;;;;;;5056897;28;19936;-69
2022/03/03 01:26:22;;;;;;;;;;;2.00;76.30;;;;;;5061234;28;19929;-70
2022/03/03 01:28:49;;;;;;;;;;;2.00;76.50;;;;;;5053756;28;20072;-69
2022/03/03 01:31:17;;;;;;;;;;;2.00;76.40;;;;;;5055762;28;20316;-69
2022/03/03 01:33:43;;;;;;;;;;;2.00;76.30;;;;;;5061487;28;19936;-70
2022/03/03 01:36:10;;;;;;;;;;;1.90;76.30;;;;;;5056463;28;19929;-70
2022/03/03 01:38:36;;;;;;;;;;;1.90;76.30;;;;;;5055217;28;19971;-69
2022/03/03 01:41:03;;;;;;;;;;;1.90;76.40;;;;;;5056097;28;19932;-69
2022/03/03 01:43:30;;;;;;;;;;;1.90;76.60;;;;;;5059825;28;19929;-69
2022/03/03 01:45:56;;;;;;;;;;;1.80;76.50;;;;;;5051304;28;19932;-69
2022/03/03 01:48:24;;;;;;;;;;;1.80;76.60;;;;;;5062189;28;19955;-69
2022/03/03 01:50:52;;;;;;;;;;;1.80;76.70;;;;;;5056007;28;19928;-69
2022/03/03 01:53:19;;;;;;;;;;;1.80;76.60;;;;;;5059031;28;19932;-70
2022/03/03 01:55:46;;;;;;;;;;;1.80;76.60;;;;;;5051900;28;20095;-69
2022/03/03 01:58:12;;;;;;;;;;;1.80;76.70;;;;;;5064932;28;19936;-69
2022/03/03 02:00:39;;;;;;;;;;;1.70;76.80;;;;;;5050129;28;19936;-69
2022/03/03 02:03:06;;;;;;;;;;;1.80;76.80;;;;;;5067921;28;19932;-70
2022/03/03 02:05:34;;;;;;;;;;;1.80;76.80;;;;;;5056701;28;20427;-69
2022/03/03 02:08:01;;;;;;;;;;;1.70;76.70;;;;;;5054762;28;19932;-69
2022/03/03 02:10:27;;;;;;;;;;;1.70;76.60;;;;;;5060846;28;19928;-69
2022/03/03 02:12:54;;;;;;;;;;;1.70;76.60;;;;;;5054670;28;19929;-69
2022/03/03 02:15:21;;;;;;;;;;;1.70;76.80;;;;;;5056265;28;19935;-69
2022/03/03 02:17:47;;;;;;;;;;;1.60;76.80;;;;;;5065218;28;20487;-69
2022/03/03 02:20:22;;;;;;;;;;;1.60;77.00;;;;;;5065707;28;19928;-69
2022/03/03 02:22:49;;;;;;;;;;;1.60;77.00;;;;;;5056961;28;20344;-69
2022/03/03 02:25:16;;;;;;;;;;;1.60;77.10;;;;;;5060502;28;19939;-69
2022/03/03 02:27:43;;;;;;;;;;;1.50;77.10;;;;;;5057766;28;20054;-69
2022/03/03 02:30:10;;;;;;;;;;;1.60;77.20;;;;;;5054271;28;20362;-69
2022/03/03 02:32:36;;;;;;;;;;;1.60;77.30;;;;;;5055199;28;19928;-69
2022/03/03 02:35:03;;;;;;;;;;;1.50;77.10;;;;;;5054727;28;19933;-69
2022/03/03 02:37:34;;;;;;;;;;;1.50;77.10;;;;;;5055876;28;19935;-69
2022/03/03 02:40:01;;;;;;;;;;;1.50;77.20;;;;;;5051947;28;20100;-69
2022/03/03 02:42:28;;;;;;;;;;;1.50;77.20;;;;;;5064877;28;19936;-69
2022/03/03 02:44:54;;;;;;;;;;;1.50;77.20;;;;;;5050614;28;19929;-69
2022/03/03 02:47:21;;;;;;;;;;;1.40;77.20;;;;;;5054490;28;19928;-68
2022/03/03 02:49:47;;;;;;;;;;;1.40;77.20;;;;;;5057803;28;19928;-69
2022/03/03 02:52:14;;;;;;;;;;;1.40;77.20;;;;;;5054957;28;19936;-69
2022/03/03 02:54:42;;;;;;;;;;;1.40;77.30;;;;;;5057936;28;19936;-68
2022/03/03 02:59:52;;;;;;;;;;;1.40;77.50;;;;;;5051777;28;20466;-69
2022/03/03 03:02:19;;;;;;;;;;;1.30;77.50;;;;;;5068136;28;19939;-69
2022/03/03 03:04:45;;;;;;;;;;;1.30;77.50;;;;;;5060780;28;19928;-69
2022/03/03 03:07:12;;;;;;;;;;;1.30;77.40;;;;;;5055576;28;19951;-69
2022/03/03 03:09:39;;;;;;;;;;;1.30;77.30;;;;;;5055376;28;19929;-68
2022/03/03 03:12:07;;;;;;;;;;;1.30;77.40;;;;;;5056956;28;19928;-69
2022/03/03 03:14:34;;;;;;;;;;;1.30;77.50;;;;;;5062076;28;19936;-69
2022/03/03 03:17:00;;;;;;;;;;;1.20;77.50;;;;;;5056338;28;19986;-68
2022/03/03 03:19:27;;;;;;;;;;;1.30;77.60;;;;;;5055727;28;19929;-69
2022/03/03 03:21:54;;;;;;;;;;;1.20;77.50;;;;;;5049753;28;19964;-69
2022/03/03 03:24:20;;;;;;;;;;;1.20;77.60;;;;;;5056192;28;19928;-69
2022/03/03 03:26:47;;;;;;;;;;;1.20;77.50;;;;;;5054780;28;20325;-69
2022/03/03 03:29:14;;;;;;;;;;;1.20;77.60;;;;;;5057336;28;19928;-69
2022/03/03 03:31:41;;;;;;;;;;;1.20;77.90;;;;;;5053077;28;19928;-69
2022/03/03 03:34:08;;;;;;;;;;;1.20;77.70;;;;;;5061789;28;19932;-69
2022/03/03 03:36:35;;;;;;;;;;;1.20;77.70;;;;;;5061193;28;19928;-69
2022/03/03 03:39:01;;;;;;;;;;;1.20;77.60;;;;;;5060128;28;19987;-69
2022/03/03 03:41:28;;;;;;;;;;;1.10;77.70;;;;;;5059266;28;19928;-69
2022/03/03 03:43:54;;;;;;;;;;;1.10;77.70;;;;;;5066364;28;19929;-69
2022/03/03 03:46:22;;;;;;;;;;;1.10;77.80;;;;;;5061705;28;19939;-69
2022/03/03 03:48:49;;;;;;;;;;;1.10;77.80;;;;;;5059775;28;19932;-69
2022/03/03 03:51:16;;;;;;;;;;;1.10;77.90;;;;;;5060437;28;19975;-69
2022/03/03 03:53:42;;;;;;;;;;;1.00;78.00;;;;;;5065636;28;19954;-69
2022/03/03 03:56:09;;;;;;;;;;;1.00;77.90;;;;;;5056889;28;19983;-69
2022/03/03 03:58:35;;;;;;;;;;;1.00;77.80;;;;;;5054961;28;19932;-70
2022/03/03 04:01:02;;;;;;;;;;;1.00;77.80;;;;;;5054500;28;19940;-69
2022/03/03 04:03:30;;;;;;;;;;;1.00;77.90;;;;;;5063118;28;19935;-69
2022/03/03 04:05:57;;;;;;;;;;;1.00;78.00;;;;;;5062549;28;20523;-69
2022/03/03 04:08:23;;;;;;;;;;;0.90;78.00;;;;;;5053117;28;20428;-69
2022/03/03 04:10:50;;;;;;;;;;;1.00;78.00;;;;;;5058975;28;19929;-69
2022/03/03 04:13:17;;;;;;;;;;;0.90;78.00;;;;;;5064054;28;19967;-69
2022/03/03 04:15:43;;;;;;;;;;;0.90;78.00;;;;;;5055762;28;19933;-69
2022/03/03 04:18:10;;;;;;;;;;;0.90;78.10;;;;;;5057334;28;19940;-69
2022/03/03 04:20:39;;;;;;;;;;;0.90;78.10;;;;;;5055042;28;20030;-69
2022/03/03 04:23:05;;;;;;;;;;;0.90;78.10;;;;;;5053043;28;19928;-69
2022/03/03 04:25:33;;;;;;;;;;;0.90;78.00;;;;;;5060704;28;19933;-69
2022/03/03 04:27:59;;;;;;;;;;;0.90;78.00;;;;;;5053030;28;19935;-69
2022/03/03 04:30:26;;;;;;;;;;;0.90;78.20;;;;;;5058210;28;19935;-68
2022/03/03 04:32:52;;;;;;;;;;;0.80;78.20;;;;;;5062372;28;19935;-69
2022/03/03 04:35:19;;;;;;;;;;;0.80;78.20;;;;;;5056035;28;20398;-69
2022/03/03 04:37:47;;;;;;;;;;;0.80;78.30;;;;;;5056582;28;19936;-69
2022/03/03 04:40:14;;;;;;;;;;;0.80;78.30;;;;;;5055086;28;20717;-69
2022/03/03 04:42:40;;;;;;;;;;;0.80;78.30;;;;;;5064331;28;20639;-69
2022/03/03 04:45:07;;;;;;;;;;;0.80;78.40;;;;;;5062332;28;19940;-68
2022/03/03 04:47:34;;;;;;;;;;;0.70;78.40;;;;;;5057116;28;19976;-69
2022/03/03 04:50:00;;;;;;;;;;;0.70;78.40;;;;;;5059943;28;19929;-68
2022/03/03 04:52:27;;;;;;;;;;;0.70;78.50;;;;;;5063186;28;19963;-69
2022/03/03 04:54:55;;;;;;;;;;;0.70;78.50;;;;;;5061447;28;19997;-69
2022/03/03 04:57:21;;;;;;;;;;;0.70;78.50;;;;;;5061190;28;19932;-68
2022/03/03 04:59:48;;;;;;;;;;;0.70;78.40;;;;;;5052735;28;19928;-69
2022/03/03 05:02:15;;;;;;;;;;;0.70;78.40;;;;;;5059169;28;19928;-68
2022/03/03 05:04:41;;;;;;;;;;;0.60;78.40;;;;;;5056911;28;19928;-69
2022/03/03 05:07:08;;;;;;;;;;;0.60;78.50;;;;;;5058309;28;19932;-69
2022/03/03 05:09:34;;;;;;;;;;;0.60;78.50;;;;;;5059556;28;20005;-69
2022/03/03 05:12:02;;;;;;;;;;;0.60;78.60;;;;;;5065387;28;19929;-69
2022/03/03 05:14:29;;;;;;;;;;;0.60;78.60;;;;;;5059061;28;19928;-69
2022/03/03 05:16:56;;;;;;;;;;;0.60;78.70;;;;;;5057349;28;19935;-69
2022/03/03 05:19:23;;;;;;;;;;;0.50;78.70;;;;;;5060523;28;19932;-69
2022/03/03 05:21:49;;;;;;;;;;;0.50;78.60;;;;;;5052556;28;19928;-69
2022/03/03 05:24:16;;;;;;;;;;;0.50;78.60;;;;;;5054643;28;19932;-69
2022/03/03 05:26:42;;;;;;;;;;;0.50;78.60;;;;;;5057097;28;19929;-69
2022/03/03 05:29:10;;;;;;;;;;;0.50;78.70;;;;;;5056034;28;20324;-69
2022/03/03 05:31:37;;;;;;;;;;;0.50;78.80;;;;;;5055764;28;19929;-68
2022/03/03 05:34:04;;;;;;;;;;;0.50;78.80;;;;;;5056804;28;19928;-69
2022/03/03 05:36:31;;;;;;;;;;;0.50;78.80;;;;;;5055648;28;19968;-69
2022/03/03 05:38:58;;;;;;;;;;;0.40;78.80;;;;;;5050973;28;19933;-69
2022/03/03 05:41:24;;;;;;;;;;;0.40;78.90;;;;;;5055955;28;19928;-69
2022/03/03 05:43:51;;;;;;;;;;;0.40;78.80;;;;;;5063915;28;19928;-69
2022/03/03 05:46:20;;;;;;;;;;;0.40;78.80;;;;;;5057792;28;19940;-68
2022/03/03 05:48:48;;;;;;;;;;;0.40;78.80;;;;;;5052035;28;19928;-69
2022/03/03 05:51:14;;;;;;;;;;;0.40;78.80;;;;;;5057735;28;20495;-69
2022/03/03 05:53:41;;;;;;;;;;;0.40;78.80;;;;;;5060767;28;19929;-69
2022/03/03 05:56:09;;;;;;;;;;;0.40;78.90;;;;;;5057065;28;19939;-69
2022/03/03 05:58:40;;;;;;;;;;;0.40;78.90;;;;;;5058060;28;19939;-69
2022/03/03 06:01:07;;;;;;;;;;;0.30;78.80;;;;;;5054438;28;20023;-69
2022/03/03 06:03:35;;;;;;;;;;;0.30;78.80;;;;;;5054364;28;19933;-68
2022/03/03 06:06:05;;;;;;;;;;;0.30;78.90;;;;;;5051922;28;19929;-69
2022/03/03 06:08:35;;;;;;;;;;;0.30;79.00;;;;;;5056877;28;20368;-69
2022/03/03 06:11:03;;;;;;;;;;;0.30;79.10;;;;;;5051526;28;19932;-68
2022/03/03 06:13:35;;;;;;;;;;;0.30;79.10;;;;;;5060267;28;19929;-68
2022/03/03 06:16:03;;;;;;;;;;;0.20;79.10;;;;;;5056938;28;19936;-69
2022/03/03 06:18:32;;;;;;;;;;;0.20;79.00;;;;;;5054724;28;19928;-69
2022/03/03 06:21:00;;;;;;;;;;;0.20;79.10;;;;;;5053347;28;20019;-69
2022/03/03 06:23:27;;;;;;;;;;;0.20;79.20;;;;;;5055746;28;20630;-69
2022/03/03 06:25:57;;;;;;;;;;;0.20;79.20;;;;;;5057979;28;20343;-69
2022/03/03 06:28:24;;;;;;;;;;;0.20;79.30;;;;;;5053970;28;19925;-69
2022/03/03 06:30:50;;;;;;;;;;;-0.10;80.20;;;;;;5056287;28;20059;-69
2022/03/03 06:33:17;;;;;;;;;;;-0.20;81.80;;;;;;5062005;28;19928;-69
2022/03/03 06:35:43;;;;;;;;;;;-0.30;82.30;;;;;;5064353;28;20585;-69
2022/03/03 06:38:11;;;;;;;;;;;-0.30;82.30;;;;;;5057194;28;20373;-69
2022/03/03 06:40:38;;;;;;;;;;;-0.30;82.20;;;;;;5056727;28;19925;-69
2022/03/03 06:43:05;;;;;;;;;;;-0.30;82.00;;;;;;5057985;28;19932;-68
2022/03/03 06:45:32;;;;;;;;;;;-0.20;81.90;;;;;;5056150;28;20439;-69
2022/03/03 06:48:01;;;;;;;;;;;-0.20;81.80;;;;;;5062139;28;19928;-69
2022/03/03 06:50:28;;;;;;;;;;;-0.20;81.60;;;;;;5060352;28;20275;-69
2022/03/03 06:52:55;;;;;;;;;;;-0.10;81.30;;;;;;5057761;28;20364;-69
2022/03/03 06:55:24;;;;;;;;;;;-0.10;81.10;;;;;;5054832;28;20293;-69
2022/03/03 06:57:52;;;;;;;;;;;-0.10;81.00;;;;;;5059256;28;19928;-69
2022/03/03 07:00:19;;;;;;;;;;;-0.10;80.90;;;;;;5058366;28;19928;-69
2022/03/03 07:02:46;;;;;;;;;;;-0.10;80.80;;;;;;5055802;28;19936;-70
2022/03/03 07:05:13;;;;;;;;;;;-0.10;80.80;;;;;;5058713;28;20010;-69
2022/03/03 07:07:40;;;;;;;;;;;-0.10;80.70;;;;;;5055112;28;19941;-70
2022/03/03 07:10:08;;;;;;;;;;;-0.10;80.80;;;;;;5056283;28;19939;-70
2022/03/03 07:12:36;;;;;;;;;;;-0.10;80.70;;;;;;5059933;28;19932;-69
2022/03/03 07:15:03;;;;;;;;;;;-0.10;80.70;;;;;;5059530;28;19939;-70
2022/03/03 07:17:33;;;;;;;;;;;-0.10;80.60;;;;;;5057904;28;19928;-70
2022/03/03 07:20:04;;;;;;;;;;;-0.10;80.70;;;;;;5050277;28;20026;-69
2022/03/03 07:22:34;;;;;;;;;;;-0.10;80.60;;;;;;5052356;28;19954;-70
2022/03/03 07:25:02;;;;;;;;;;;-0.10;80.60;;;;;;5054298;28;19924;-70
2022/03/03 07:27:29;;;;;;;;;;;-0.10;80.60;;;;;;5051636;28;19928;-70
2022/03/03 07:29:57;;;;;;;;;;;-0.10;80.60;;;;;;5047938;28;19924;-70
2022/03/03 07:32:30;;;;;;;;;;;-0.10;80.60;;;;;;5051090;28;20391;-70
2022/03/03 07:34:59;;;;;;;;;;;-0.10;80.70;;;;;;5046968;28;19925;-69
2022/03/03 07:37:29;;;;;;;;;;;-0.10;80.70;;;;;;5055973;28;19929;-70
2022/03/03 07:40:00;;;;;;;;;;;-0.10;80.80;;;;;;5051112;28;19932;-69
2022/03/03 07:42:27;;;;;;;;;;;-0.10;80.90;;;;;;5052009;28;21654;-70
2022/03/03 07:44:53;;;;;;;;;;;-0.10;81.10;;;;;;5051640;28;20011;-70
2022/03/03 07:47:22;;;;;;;;;;;-0.10;81.20;;;;;;5055211;28;20382;-70
2022/03/03 07:49:48;;;;;;;;;;;-0.10;81.10;;;;;;5051680;28;19932;-69
2022/03/03 07:52:15;;;;;;;;;;;-0.10;81.10;;;;;;5056167;28;19928;-69
2022/03/03 07:54:42;;;;;;;;;;;-0.10;81.10;;;;;;5058541;28;19924;-70
2022/03/03 07:57:11;;;;;;;;;;;-0.10;81.00;;;;;;5056785;28;19939;-70
2022/03/03 07:59:38;;;;;;;;;;;-0.10;81.00;;;;;;5054703;28;19939;-70
2022/03/03 08:02:05;;;;;;;;;;;-0.10;81.00;;;;;;5042439;28;19933;-70
2022/03/03 08:04:34;;;;;;;;;;;-0.10;81.10;;;;;;5038617;28;19933;-70
2022/03/03 08:07:06;;;;;;;;;;;-0.10;81.10;;;;;;5034744;28;20292;-70
2022/03/03 08:09:33;;;;;;;;;;;-0.10;81.10;;;;;;5038362;28;19925;-70
2022/03/03 08:12:02;;;;;;;;;;;-0.10;81.10;;;;;;5039312;28;19925;-71
2022/03/03 08:14:29;;;;;;;;;;;-0.10;81.10;;;;;;5041407;28;20416;-71
2022/03/03 08:16:55;;;;;;;;;;;-0.10;81.00;;;;;;5031326;28;19936;-71
2022/03/03 08:19:22;;;;;;;;;;;-0.10;81.10;;;;;;5042541;28;19940;-71
2022/03/03 08:21:50;;;;;;;;;;;-0.10;81.80;;;;;;5044562;28;19931;-71
2022/03/03 08:24:16;;;;;;;;;;;-0.10;81.00;;;;;;5041855;28;19925;-71
2022/03/03 08:26:44;;;;;;;;;;;0.00;81.00;;;;;;5040832;28;19947;-72
2022/03/03 08:29:12;;;;;;;;;;;0.00;81.00;;;;;;5041397;28;19933;-70
2022/03/03 08:31:40;;;;;;;;;;;0.00;81.10;;;;;;5048866;28;19931;-72
2022/03/03 08:34:12;;;;;;;;;;;0.00;81.00;;;;;;5059714;28;19936;-71
2022/03/03 08:36:45;;;;;;;;;;;0.00;80.90;;;;;;5058450;28;20386;-71
2022/03/03 08:39:14;;;;;;;;;;;0.00;80.80;;;;;;5057246;28;19925;-70
2022/03/03 08:41:41;;;;;;;;;;;0.00;80.70;;;;;;5057689;28;19936;-70
2022/03/03 08:44:09;;;;;;;;;;;0.00;80.70;;;;;;5059573;28;19925;-71
2022/03/03 08:46:36;;;;;;;;;;;0.10;80.60;;;;;;5058309;28;19932;-71
2022/03/03 08:49:04;;;;;;;;;;;0.10;80.50;;;;;;5056042;28;20415;-71
2022/03/03 08:51:30;;;;;;;;;;;0.10;80.30;;;;;;5057796;28;19932;-71
2022/03/03 08:53:57;;;;;;;;;;;0.10;80.20;;;;;;5061198;28;19931;-71
2022/03/03 08:56:26;;;;;;;;;;;0.20;80.20;;;;;;5062825;28;19932;-71
2022/03/03 08:58:53;;;;;;;;;;;0.20;80.10;;;;;;5057360;28;19928;-71
2022/03/03 09:01:20;;;;;;;;;;;0.20;80.10;;;;;;5055356;28;19952;-71
2022/03/03 09:03:47;;;;;;;;;;;0.30;80.20;;;;;;5056313;28;19928;-72
2022/03/03 09:06:14;;;;;;;;;;;0.30;80.10;;;;;;5059495;28;19935;-71
2022/03/03 09:08:40;;;;;;;;;;;0.30;80.10;;;;;;5055845;28;20424;-71
2022/03/03 09:11:07;;;;;;;;;;;0.40;80.20;;;;;;5061080;28;19933;-71
2022/03/03 09:13:35;;;;;;;;;;;0.40;80.00;;;;;;5056616;28;19932;-72
2022/03/03 09:16:02;;;;;;;;;;;0.50;80.00;;;;;;5061210;28;19937;-72
2022/03/03 09:18:28;;;;;;;;;;;0.50;80.00;;;;;;5062389;28;21275;-72
2022/03/03 09:20:55;;;;;;;;;;;0.50;80.50;;;;;;5062851;28;19935;-71
2022/03/03 09:23:21;;;;;;;;;;;0.60;79.50;;;;;;5052998;28;19947;-72
2022/03/03 09:25:48;;;;;;;;;;;0.60;79.40;;;;;;5056118;28;20391;-72
2022/03/03 09:28:15;;;;;;;;;;;0.70;79.30;;;;;;5061269;28;20312;-71
2022/03/03 09:30:43;;;;;;;;;;;0.70;79.00;;;;;;5056016;28;19935;-72
2022/03/03 09:33:09;;;;;;;;;;;0.70;78.90;;;;;;5063680;28;20003;-72
2022/03/03 09:35:36;;;;;;;;;;;0.80;79.60;;;;;;5068668;28;19934;-72
2022/03/03 09:38:03;;;;;;;;;;;0.80;78.80;;;;;;5055460;28;21128;-72
2022/03/03 09:40:30;;;;;;;;;;;0.90;78.70;;;;;;5059549;28;20424;-72
2022/03/03 09:42:57;;;;;;;;;;;1.00;78.60;;;;;;5062393;28;19933;-72
2022/03/03 09:45:24;;;;;;;;;;;1.00;78.60;;;;;;5063512;28;25564;-72
2022/03/03 09:47:53;;;;;;;;;;;1.10;78.40;;;;;;5063107;28;19935;-72
2022/03/03 09:50:20;;;;;;;;;;;1.20;78.20;;;;;;5070508;28;20355;-72
2022/03/03 09:52:47;;;;;;;;;;;1.20;78.00;;;;;;5057803;28;19929;-72
2022/03/03 09:55:13;;;;;;;;;;;1.30;77.80;;;;;;5061232;28;19935;-72
2022/03/03 09:57:40;;;;;;;;;;;1.40;77.80;;;;;;5059731;28;19928;-72
2022/03/03 10:00:08;;;;;;;;;;;1.50;77.50;;;;;;5062665;28;19932;-72
2022/03/03 10:02:50;;;;;;;;;;;1.50;77.20;;;;;;5052248;28;20694;-72
2022/03/03 10:05:29;;;;;;;;;;;1.60;77.00;;;;;;5057555;28;19939;-72
2022/03/03 10:07:59;;;;;;;;;;;1.70;76.60;;;;;;5059575;28;19935;-72
2022/03/03 10:10:26;;;;;;;;;;;1.80;76.50;;;;;;5054843;28;20034;-72
2022/03/03 10:12:56;;;;;;;;;;;1.90;76.30;;;;;;5056887;28;19936;-72
2022/03/03 10:15:25;;;;;;;;;;;1.90;76.00;;;;;;5053274;28;19943;-71
2022/03/03 10:17:55;;;;;;;;;;;2.00;75.90;;;;;;5059892;28;20421;-72
2022/03/03 10:20:22;;;;;;;;;;;2.10;75.60;;;;;;5060850;28;19960;-72
2022/03/03 10:22:57;;;;;;;;;;;2.10;75.30;;;;;;5058125;28;19935;-72
2022/03/03 10:25:31;;;;;;;;;;;2.20;76.00;;;;;;5054476;28;19928;-72
2022/03/03 10:28:05;;;;;;;;;;;2.30;75.10;;;;;;5055893;28;19928;-72
2022/03/03 10:30:46;;;;;;;;;;;2.30;74.90;;;;;;5054145;28;20384;-72
2022/03/03 10:33:14;;;;;;;;;;;2.40;74.70;;;;;;5058500;28;20160;-72
2022/03/03 10:35:41;;;;;;;;;;;2.50;74.50;;;;;;5055124;28;19939;-72
2022/03/03 10:38:09;;;;;;;;;;;2.50;74.40;;;;;;5058406;28;20419;-72
2022/03/03 10:40:38;;;;;;;;;;;2.60;75.00;;;;;;5050782;28;20446;-72
2022/03/03 10:43:05;;;;;;;;;;;2.60;74.00;;;;;;5057967;28;19982;-73
2022/03/03 10:45:34;;;;;;;;;;;2.70;73.80;;;;;;5054279;28;19964;-72
2022/03/03 10:48:01;;;;;;;;;;;2.80;73.70;;;;;;5054733;28;19928;-72
2022/03/03 10:50:44;;;;;;;;;;;2.90;73.80;;;;;;5056725;28;19928;-72
2022/03/03 10:53:12;;;;;;;;;;;2.90;73.60;;;;;;5060367;28;20594;-72
2022/03/03 10:55:38;;;;;;;;;;;3.00;73.70;;;;;;5055540;28;19928;-72
2022/03/03 10:58:06;;;;;;;;;;;3.10;73.60;;;;;;5062057;28;19928;-72
2022/03/03 11:00:35;;;;;;;;;;;3.10;73.60;;;;;;5062395;28;19987;-72
2022/03/03 11:03:04;;;;;;;;;;;3.20;73.60;;;;;;5054872;28;19928;-72
2022/03/03 11:05:31;;;;;;;;;;;3.30;73.70;;;;;;5052931;28;19986;-72
2022/03/03 11:07:58;;;;;;;;;;;3.30;73.70;;;;;;5055778;28;19936;-72
2022/03/03 11:10:27;;;;;;;;;;;3.40;73.50;;;;;;5057697;28;19928;-72
2022/03/03 11:12:55;;;;;;;;;;;3.50;73.30;;;;;;5057308;28;20024;-72
2022/03/03 11:15:23;;;;;;;;;;;3.50;72.90;;;;;;5056836;28;19929;-72
2022/03/03 11:17:50;;;;;;;;;;;3.60;72.80;;;;;;5058916;28;20784;-72
2022/03/03 11:20:17;;;;;;;;;;;3.70;72.50;;;;;;5056376;28;20754;-72
2022/03/03 11:22:44;;;;;;;;;;;3.70;72.20;;;;;;5066060;28;19928;-72
2022/03/03 11:25:13;;;;;;;;;;;3.80;72.20;;;;;;5059265;28;19963;-72
2022/03/03 11:27:42;;;;;;;;;;;3.90;72.00;;;;;;5059878;28;19932;-72
2022/03/03 11:30:12;;;;;;;;;;;4.00;72.10;;;;;;5058999;28;19936;-72
2022/03/03 11:32:39;;;;;;;;;;;4.00;72.10;;;;;;5055238;28;19950;-72
2022/03/03 11:35:07;;;;;;;;;;;4.10;72.70;;;;;;5061608;28;19928;-72
2022/03/03 11:37:38;;;;;;;;;;;4.20;71.70;;;;;;5057709;28;19939;-71
2022/03/03 11:40:05;;;;;;;;;;;4.20;71.50;;;;;;5055645;28;19929;-72
2022/03/03 11:42:35;;;;;;;;;;;4.30;71.30;;;;;;5071443;28;19958;-72
2022/03/03 11:45:19;;;;;;;;;;;4.40;71.30;;;;;;5061490;28;20581;-72
2022/03/03 11:47:47;;;;;;;;;;;4.50;71.10;;;;;;5059613;28;19924;-72
2022/03/03 11:50:19;;;;;;;;;;;4.50;71.00;;;;;;5072397;28;20043;-72
2022/03/03 11:52:46;;;;;;;;;;;4.60;71.00;;;;;;5059065;28;19936;-73
2022/03/03 11:55:27;;;;;;;;;;;4.60;70.90;;;;;;5067722;28;19936;-73
2022/03/03 11:57:54;;;;;;;;;;;4.70;70.80;;;;;;5064874;28;20460;-72
2022/03/03 12:00:22;;;;;;;;;;;4.80;70.80;;;;;;5075682;28;20455;-72
2022/03/03 12:03:02;;;;;;;;;;;4.90;70.60;;;;;;5062688;28;19929;-73
2022/03/03 12:05:36;;;;;;;;;;;4.90;70.40;;;;;;5076765;28;19928;-72
2022/03/03 12:08:04;;;;;;;;;;;5.00;70.10;;;;;;5062744;28;19932;-72
2022/03/03 12:10:31;;;;;;;;;;;5.10;70.00;;;;;;5066369;28;19928;-73
2022/03/03 12:13:12;;;;;;;;;;;5.10;70.00;;;;;;5069644;28;19936;-72
2022/03/03 12:15:41;;;;;;;;;;;5.20;70.00;;;;;;5053180;28;19928;-72
2022/03/03 12:18:08;;;;;;;;;;;5.30;70.00;;;;;;5066484;28;19940;-72
2022/03/03 12:20:35;;;;;;;;;;;5.30;69.70;;;;;;5060864;28;19935;-72
2022/03/03 12:23:07;;;;;;;;;;;5.40;69.70;;;;;;5063777;28;19936;-72
2022/03/03 12:25:54;;;;;;;;;;;5.50;69.60;;;;;;5060387;28;19928;-73
2022/03/03 12:28:22;;;;;;;;;;;5.50;69.60;;;;;;5062890;28;20011;-72
2022/03/03 12:30:51;;;;;;;;;;;5.60;70.10;;;;;;5058270;28;20647;-73
2022/03/03 12:33:22;;;;;;;;;;;5.70;70.00;;;;;;5057692;28;20377;-72
2022/03/03 12:35:49;;;;;;;;;;;5.80;70.00;;;;;;5065527;28;20421;-72
2022/03/03 12:38:16;;;;;;;;;;;5.80;69.70;;;;;;5058913;28;19956;-72
2022/03/03 12:40:43;;;;;;;;;;;5.90;69.10;;;;;;5059370;28;19928;-73
2022/03/03 12:43:11;;;;;;;;;;;5.90;69.00;;;;;;5064851;28;20002;-72
2022/03/03 12:45:38;;;;;;;;;;;6.00;69.00;;;;;;5056709;28;19932;-73
2022/03/03 12:48:07;;;;;;;;;;;6.10;68.70;;;;;;5052081;28;19936;-73
2022/03/03 12:50:35;;;;;;;;;;;6.10;68.60;;;;;;5060975;28;19933;-72
2022/03/03 12:53:03;;;;;;;;;;;6.10;68.40;;;;;;5049231;28;20957;-72
2022/03/03 12:55:31;;;;;;;;;;;6.30;68.40;;;;;;5059050;28;19935;-72
2022/03/03 12:57:58;;;;;;;;;;;6.30;68.10;;;;;;5060709;28;20024;-72
2022/03/03 13:00:25;;;;;;;;;;;6.30;68.10;;;;;;5057999;28;20412;-73
2022/03/03 13:02:52;;;;;;;;;;;6.40;68.10;;;;;;5059065;28;20236;-73
2022/03/03 13:05:30;;;;;;;;;;;6.40;68.00;;;;;;5059006;28;19932;-72
2022/03/03 13:07:57;;;;;;;;;;;6.50;67.90;;;;;;5057581;28;19928;-72
2022/03/03 13:10:23;;;;;;;;;;;6.50;67.70;;;;;;5059974;28;19940;-72
2022/03/03 13:12:53;;;;;;;;;;;6.60;67.60;;;;;;5062628;28;20316;-73
2022/03/03 13:15:26;;;;;;;;;;;6.60;67.40;;;;;;5060705;28;19928;-72
2022/03/03 13:17:57;;;;;;;;;;;6.70;67.20;;;;;;5052886;28;19935;-73
2022/03/03 13:20:23;;;;;;;;;;;6.70;67.00;;;;;;5055319;28;19932;-73
2022/03/03 13:22:51;;;;;;;;;;;6.80;66.90;;;;;;5059810;28;20486;-72
2022/03/03 13:25:18;;;;;;;;;;;6.80;66.80;;;;;;5057150;28;20037;-72
2022/03/03 13:27:45;;;;;;;;;;;6.80;66.80;;;;;;5057340;28;19935;-72
2022/03/03 13:30:12;;;;;;;;;;;6.90;66.50;;;;;;5060478;28;19928;-72
2022/03/03 13:32:43;;;;;;;;;;;7.00;66.50;;;;;;5054264;28;20304;-72
2022/03/03 13:35:10;;;;;;;;;;;7.00;66.60;;;;;;5051371;28;19932;-72
2022/03/03 13:37:36;;;;;;;;;;;7.00;66.30;;;;;;5051807;28;20569;-72
2022/03/03 13:40:13;;;;;;;;;;;7.10;66.10;;;;;;5054423;28;20397;-72
2022/03/03 13:42:40;;;;;;;;;;;7.10;66.00;;;;;;5053716;28;19929;-72
2022/03/03 13:45:07;;;;;;;;;;;7.20;66.00;;;;;;5059906;28;19956;-72
2022/03/03 13:47:39;;;;;;;;;;;7.20;65.90;;;;;;5052963;28;19933;-72
2022/03/03 13:50:06;;;;;;;;;;;7.30;65.70;;;;;;5050056;28;20075;-72
2022/03/03 13:52:33;;;;;;;;;;;7.30;65.60;;;;;;5056783;28;19928;-73
2022/03/03 13:55:02;;;;;;;;;;;7.30;65.40;;;;;;5053691;28;20002;-73
2022/03/03 13:57:37;;;;;;;;;;;7.40;65.30;;;;;;5060009;28;20110;-72
2022/03/03 14:00:06;;;;;;;;;;;7.40;65.30;;;;;;5054217;28;20035;-72
2022/03/03 14:02:33;;;;;;;;;;;7.50;65.30;;;;;;5053654;28;19940;-72
2022/03/03 14:05:00;;;;;;;;;;;7.50;65.10;;;;;;5059350;28;19951;-72
2022/03/03 14:07:27;;;;;;;;;;;7.60;65.00;;;;;;5059040;28;19950;-72
2022/03/03 14:09:57;;;;;;;;;;;7.60;64.90;;;;;;5059401;28;19929;-72
2022/03/03 14:12:24;;;;;;;;;;;7.60;64.70;;;;;;5055366;28;19934;-72
2022/03/03 14:14:52;;;;;;;;;;;7.70;64.80;;;;;;5054587;28;20015;-72
2022/03/03 14:17:18;;;;;;;;;;;7.70;64.70;;;;;;5056151;28;19935;-72
2022/03/03 14:19:46;;;;;;;;;;;7.80;64.70;;;;;;5061159;28;19992;-72
2022/03/03 14:22:16;;;;;;;;;;;7.80;64.40;;;;;;5059288;28;19936;-72
2022/03/03 14:24:43;;;;;;;;;;;7.90;64.20;;;;;;5059588;28;19961;-72
2022/03/03 14:27:09;;;;;;;;;;;7.90;63.90;;;;;;5060031;28;19928;-72
2022/03/03 14:29:36;;;;;;;;;;;8.00;64.00;;;;;;5053878;28;19929;-73
2022/03/03 14:32:04;;;;;;;;;;;8.00;64.00;;;;;;5057361;28;19939;-73
2022/03/03 14:34:31;;;;;;;;;;;8.00;63.90;;;;;;5059856;28;19972;-72